sensor_id;sensor_type;location;lat;lon;timestamp;P1;durP1;ratioP1;P2;durP2;ratioP2
77038;SDS011;65970;50.476;4.840;2023-07-08T00:03:03;4.53;;;2.92;;
77038;SDS011;65970;50.476;4.840;2023-07-08T00:08:03;3.97;;;2.42;;
77038;SDS011;65970;50.476;4.840;2023-07-08T00:13:04;5.00;;;2.45;;
77038;SDS011;65970;50.476;4.840;2023-07-08T00:18:11;7.50;;;3.38;;
77038;SDS011;65970;50.476;4.840;2023-07-08T00:23:16;5.22;;;2.95;;
77038;SDS011;65970;50.476;4.840;2023-07-08T00:28:17;4.53;;;2.85;;
77038;SDS011;65970;50.476;4.840;2023-07-08T00:33:19;4.55;;;3.05;;
77038;SDS011;65970;50.476;4.840;2023-07-08T00:43:25;5.18;;;2.60;;
77038;SDS011;65970;50.476;4.840;2023-07-08T00:48:33;4.60;;;3.15;;
77038;SDS011;65970;50.476;4.840;2023-07-08T00:58:45;4.47;;;3.47;;
77038;SDS011;65970;50.476;4.840;2023-07-08T01:03:59;5.32;;;2.97;;
77038;SDS011;65970;50.476;4.840;2023-07-08T01:09:08;4.13;;;2.63;;
77038;SDS011;65970;50.476;4.840;2023-07-08T01:14:13;3.83;;;2.50;;
77038;SDS011;65970;50.476;4.840;2023-07-08T01:19:20;3.65;;;2.50;;
77038;SDS011;65970;50.476;4.840;2023-07-08T01:29:23;4.80;;;2.28;;
77038;SDS011;65970;50.476;4.840;2023-07-08T01:34:23;4.75;;;2.38;;
77038;SDS011;65970;50.476;4.840;2023-07-08T01:39:26;3.60;;;2.70;;
77038;SDS011;65970;50.476;4.840;2023-07-08T01:49:32;4.93;;;2.67;;
77038;SDS011;65970;50.476;4.840;2023-07-08T01:54:35;4.97;;;2.30;;
77038;SDS011;65970;50.476;4.840;2023-07-08T01:59:36;3.03;;;2.40;;
77038;SDS011;65970;50.476;4.840;2023-07-08T02:04:36;3.45;;;2.20;;
77038;SDS011;65970;50.476;4.840;2023-07-08T02:09:37;4.75;;;2.72;;
77038;SDS011;65970;50.476;4.840;2023-07-08T02:14:37;4.85;;;2.45;;
77038;SDS011;65970;50.476;4.840;2023-07-08T02:19:38;4.38;;;2.88;;
77038;SDS011;65970;50.476;4.840;2023-07-08T02:24:38;3.97;;;2.40;;
77038;SDS011;65970;50.476;4.840;2023-07-08T02:29:39;3.28;;;2.20;;
77038;SDS011;65970;50.476;4.840;2023-07-08T02:34:40;3.85;;;2.17;;
77038;SDS011;65970;50.476;4.840;2023-07-08T02:39:40;3.67;;;2.35;;
77038;SDS011;65970;50.476;4.840;2023-07-08T02:44:41;5.45;;;2.50;;
77038;SDS011;65970;50.476;4.840;2023-07-08T02:49:41;4.15;;;2.33;;
77038;SDS011;65970;50.476;4.840;2023-07-08T02:54:42;3.03;;;2.25;;
77038;SDS011;65970;50.476;4.840;2023-07-08T02:59:42;4.88;;;2.13;;
77038;SDS011;65970;50.476;4.840;2023-07-08T03:04:43;6.13;;;2.20;;
77038;SDS011;65970;50.476;4.840;2023-07-08T03:09:43;2.65;;;2.03;;
77038;SDS011;65970;50.476;4.840;2023-07-08T03:14:44;7.57;;;2.65;;
77038;SDS011;65970;50.476;4.840;2023-07-08T03:19:44;5.50;;;2.45;;
77038;SDS011;65970;50.476;4.840;2023-07-08T03:24:45;3.88;;;2.22;;
77038;SDS011;65970;50.476;4.840;2023-07-08T03:29:45;4.38;;;2.22;;
77038;SDS011;65970;50.476;4.840;2023-07-08T03:34:46;4.78;;;2.45;;
77038;SDS011;65970;50.476;4.840;2023-07-08T03:39:47;4.95;;;2.88;;
77038;SDS011;65970;50.476;4.840;2023-07-08T03:44:47;4.25;;;2.35;;
77038;SDS011;65970;50.476;4.840;2023-07-08T03:49:48;4.38;;;2.58;;
77038;SDS011;65970;50.476;4.840;2023-07-08T03:54:48;3.75;;;2.63;;
77038;SDS011;65970;50.476;4.840;2023-07-08T03:59:49;3.08;;;2.33;;
77038;SDS011;65970;50.476;4.840;2023-07-08T04:04:49;6.32;;;2.45;;
77038;SDS011;65970;50.476;4.840;2023-07-08T04:09:50;3.72;;;2.05;;
77038;SDS011;65970;50.476;4.840;2023-07-08T04:14:50;3.00;;;2.58;;
77038;SDS011;65970;50.476;4.840;2023-07-08T04:19:51;3.00;;;1.98;;
77038;SDS011;65970;50.476;4.840;2023-07-08T04:24:51;3.55;;;2.40;;
77038;SDS011;65970;50.476;4.840;2023-07-08T04:29:52;4.05;;;2.22;;
77038;SDS011;65970;50.476;4.840;2023-07-08T04:34:52;3.72;;;2.70;;
77038;SDS011;65970;50.476;4.840;2023-07-08T04:39:53;5.55;;;2.35;;
77038;SDS011;65970;50.476;4.840;2023-07-08T04:44:53;3.83;;;2.13;;
77038;SDS011;65970;50.476;4.840;2023-07-08T04:49:54;3.70;;;2.72;;
77038;SDS011;65970;50.476;4.840;2023-07-08T04:54:54;2.95;;;2.70;;
77038;SDS011;65970;50.476;4.840;2023-07-08T04:59:55;4.00;;;2.60;;
77038;SDS011;65970;50.476;4.840;2023-07-08T05:04:55;4.38;;;3.03;;
77038;SDS011;65970;50.476;4.840;2023-07-08T05:09:57;2.80;;;2.30;;
77038;SDS011;65970;50.476;4.840;2023-07-08T05:14:58;4.90;;;2.65;;
77038;SDS011;65970;50.476;4.840;2023-07-08T05:19:58;3.05;;;2.58;;
77038;SDS011;65970;50.476;4.840;2023-07-08T05:24:59;3.20;;;2.20;;
77038;SDS011;65970;50.476;4.840;2023-07-08T05:30:00;4.85;;;2.88;;
77038;SDS011;65970;50.476;4.840;2023-07-08T05:35:01;4.65;;;2.72;;
77038;SDS011;65970;50.476;4.840;2023-07-08T05:40:02;6.38;;;2.92;;
77038;SDS011;65970;50.476;4.840;2023-07-08T05:45:03;5.28;;;3.30;;
77038;SDS011;65970;50.476;4.840;2023-07-08T05:50:04;3.55;;;2.97;;
77038;SDS011;65970;50.476;4.840;2023-07-08T05:55:05;5.18;;;3.42;;
77038;SDS011;65970;50.476;4.840;2023-07-08T06:00:06;5.50;;;3.15;;
77038;SDS011;65970;50.476;4.840;2023-07-08T06:05:09;5.15;;;2.58;;
77038;SDS011;65970;50.476;4.840;2023-07-08T06:10:09;4.50;;;2.45;;
77038;SDS011;65970;50.476;4.840;2023-07-08T06:15:10;4.50;;;3.00;;
77038;SDS011;65970;50.476;4.840;2023-07-08T06:20:10;8.02;;;4.25;;
77038;SDS011;65970;50.476;4.840;2023-07-08T06:25:11;5.25;;;4.10;;
77038;SDS011;65970;50.476;4.840;2023-07-08T06:30:12;6.00;;;3.83;;
77038;SDS011;65970;50.476;4.840;2023-07-08T06:35:12;6.68;;;4.45;;
77038;SDS011;65970;50.476;4.840;2023-07-08T06:40:13;7.72;;;4.47;;
77038;SDS011;65970;50.476;4.840;2023-07-08T06:45:13;5.43;;;4.15;;
77038;SDS011;65970;50.476;4.840;2023-07-08T06:50:14;4.72;;;4.15;;
77038;SDS011;65970;50.476;4.840;2023-07-08T06:55:15;5.65;;;4.25;;
77038;SDS011;65970;50.476;4.840;2023-07-08T07:00:15;6.57;;;3.78;;
77038;SDS011;65970;50.476;4.840;2023-07-08T07:05:16;8.70;;;5.35;;
77038;SDS011;65970;50.476;4.840;2023-07-08T07:10:16;7.60;;;4.80;;
77038;SDS011;65970;50.476;4.840;2023-07-08T07:15:17;5.03;;;3.95;;
77038;SDS011;65970;50.476;4.840;2023-07-08T07:20:18;6.72;;;4.43;;
77038;SDS011;65970;50.476;4.840;2023-07-08T07:25:18;6.22;;;4.15;;
77038;SDS011;65970;50.476;4.840;2023-07-08T07:30:19;8.90;;;4.55;;
77038;SDS011;65970;50.476;4.840;2023-07-08T07:35:21;7.07;;;4.15;;
77038;SDS011;65970;50.476;4.840;2023-07-08T07:40:21;9.07;;;3.53;;
77038;SDS011;65970;50.476;4.840;2023-07-08T07:45:22;7.20;;;4.15;;
77038;SDS011;65970;50.476;4.840;2023-07-08T07:50:23;5.82;;;4.22;;
77038;SDS011;65970;50.476;4.840;2023-07-08T07:55:23;5.72;;;4.07;;
77038;SDS011;65970;50.476;4.840;2023-07-08T08:00:24;5.28;;;3.55;;
77038;SDS011;65970;50.476;4.840;2023-07-08T08:05:25;6.10;;;3.80;;
77038;SDS011;65970;50.476;4.840;2023-07-08T08:10:26;7.75;;;3.97;;
77038;SDS011;65970;50.476;4.840;2023-07-08T08:15:26;6.13;;;3.85;;
77038;SDS011;65970;50.476;4.840;2023-07-08T08:20:27;5.00;;;3.42;;
77038;SDS011;65970;50.476;4.840;2023-07-08T08:25:28;5.80;;;3.67;;
77038;SDS011;65970;50.476;4.840;2023-07-08T08:30:31;6.68;;;3.67;;
77038;SDS011;65970;50.476;4.840;2023-07-08T08:35:32;6.88;;;3.40;;
77038;SDS011;65970;50.476;4.840;2023-07-08T08:40:32;6.70;;;3.72;;
77038;SDS011;65970;50.476;4.840;2023-07-08T08:45:34;5.20;;;3.30;;
77038;SDS011;65970;50.476;4.840;2023-07-08T08:50:54;4.93;;;3.17;;
77038;SDS011;65970;50.476;4.840;2023-07-08T08:56:44;6.50;;;3.45;;
77038;SDS011;65970;50.476;4.840;2023-07-08T09:01:20;5.27;;;3.23;;
77038;SDS011;65970;50.476;4.840;2023-07-08T09:11:40;5.53;;;3.28;;
77038;SDS011;65970;50.476;4.840;2023-07-08T09:16:58;4.97;;;3.38;;
77038;SDS011;65970;50.476;4.840;2023-07-08T09:22:16;4.68;;;3.25;;
77038;SDS011;65970;50.476;4.840;2023-07-08T09:27:21;6.47;;;3.70;;
77038;SDS011;65970;50.476;4.840;2023-07-08T09:32:26;3.63;;;3.05;;
77038;SDS011;65970;50.476;4.840;2023-07-08T09:37:28;6.78;;;3.45;;
77038;SDS011;65970;50.476;4.840;2023-07-08T09:42:32;4.78;;;3.47;;
77038;SDS011;65970;50.476;4.840;2023-07-08T09:52:36;5.53;;;3.63;;
77038;SDS011;65970;50.476;4.840;2023-07-08T09:57:36;5.70;;;3.83;;
77038;SDS011;65970;50.476;4.840;2023-07-08T10:02:40;5.17;;;3.37;;
77038;SDS011;65970;50.476;4.840;2023-07-08T10:07:57;8.57;;;3.55;;
77038;SDS011;65970;50.476;4.840;2023-07-08T10:12:59;7.22;;;4.22;;
77038;SDS011;65970;50.476;4.840;2023-07-08T10:18:03;5.28;;;2.88;;
77038;SDS011;65970;50.476;4.840;2023-07-08T10:23:19;4.70;;;3.33;;
77038;SDS011;65970;50.476;4.840;2023-07-08T10:28:45;7.75;;;3.20;;
77038;SDS011;65970;50.476;4.840;2023-07-08T10:39:40;4.68;;;3.33;;
77038;SDS011;65970;50.476;4.840;2023-07-08T10:45:09;4.95;;;3.10;;
77038;SDS011;65970;50.476;4.840;2023-07-08T10:55:48;7.32;;;3.35;;
77038;SDS011;65970;50.476;4.840;2023-07-08T11:12:00;6.68;;;3.92;;
77038;SDS011;65970;50.476;4.840;2023-07-08T11:17:17;8.50;;;3.25;;
77038;SDS011;65970;50.476;4.840;2023-07-08T11:22:23;11.15;;;4.03;;
77038;SDS011;65970;50.476;4.840;2023-07-08T11:27:25;8.88;;;3.55;;
77038;SDS011;65970;50.476;4.840;2023-07-08T11:32:33;5.07;;;3.45;;
77038;SDS011;65970;50.476;4.840;2023-07-08T11:37:35;6.18;;;3.47;;
77038;SDS011;65970;50.476;4.840;2023-07-08T11:47:44;5.28;;;3.65;;
77038;SDS011;65970;50.476;4.840;2023-07-08T11:58:00;8.73;;;2.85;;
77038;SDS011;65970;50.476;4.840;2023-07-08T12:08:22;4.38;;;3.25;;
77038;SDS011;65970;50.476;4.840;2023-07-08T12:13:34;4.35;;;3.10;;
77038;SDS011;65970;50.476;4.840;2023-07-08T12:18:34;7.38;;;3.20;;
77038;SDS011;65970;50.476;4.840;2023-07-08T12:23:43;5.22;;;3.60;;
77038;SDS011;65970;50.476;4.840;2023-07-08T12:28:47;6.68;;;3.40;;
77038;SDS011;65970;50.476;4.840;2023-07-08T12:33:48;5.28;;;3.40;;
77038;SDS011;65970;50.476;4.840;2023-07-08T12:38:49;4.43;;;3.33;;
77038;SDS011;65970;50.476;4.840;2023-07-08T12:43:51;5.87;;;3.80;;
77038;SDS011;65970;50.476;4.840;2023-07-08T12:48:51;6.82;;;3.72;;
77038;SDS011;65970;50.476;4.840;2023-07-08T12:53:53;6.03;;;3.63;;
77038;SDS011;65970;50.476;4.840;2023-07-08T12:58:54;6.88;;;4.15;;
77038;SDS011;65970;50.476;4.840;2023-07-08T13:03:59;4.78;;;3.25;;
77038;SDS011;65970;50.476;4.840;2023-07-08T13:14:43;6.00;;;4.13;;
77038;SDS011;65970;50.476;4.840;2023-07-08T13:19:44;3.92;;;3.53;;
77038;SDS011;65970;50.476;4.840;2023-07-08T13:24:46;5.60;;;3.80;;
77038;SDS011;65970;50.476;4.840;2023-07-08T13:29:47;6.60;;;3.40;;
77038;SDS011;65970;50.476;4.840;2023-07-08T13:34:50;5.63;;;3.58;;
77038;SDS011;65970;50.476;4.840;2023-07-08T13:39:52;4.32;;;3.13;;
77038;SDS011;65970;50.476;4.840;2023-07-08T13:44:54;6.80;;;3.85;;
77038;SDS011;65970;50.476;4.840;2023-07-08T13:50:04;3.95;;;3.22;;
77038;SDS011;65970;50.476;4.840;2023-07-08T13:55:17;4.40;;;3.50;;
77038;SDS011;65970;50.476;4.840;2023-07-08T14:00:19;5.32;;;3.22;;
77038;SDS011;65970;50.476;4.840;2023-07-08T14:05:19;6.15;;;3.50;;
77038;SDS011;65970;50.476;4.840;2023-07-08T14:10:20;5.50;;;3.30;;
77038;SDS011;65970;50.476;4.840;2023-07-08T14:15:21;3.80;;;3.05;;
77038;SDS011;65970;50.476;4.840;2023-07-08T14:20:21;8.15;;;3.63;;
77038;SDS011;65970;50.476;4.840;2023-07-08T14:25:25;5.32;;;3.25;;
77038;SDS011;65970;50.476;4.840;2023-07-08T14:30:26;3.67;;;2.83;;
77038;SDS011;65970;50.476;4.840;2023-07-08T14:35:28;4.32;;;2.97;;
77038;SDS011;65970;50.476;4.840;2023-07-08T14:40:33;3.95;;;3.15;;
77038;SDS011;65970;50.476;4.840;2023-07-08T14:45:46;8.30;;;2.80;;
77038;SDS011;65970;50.476;4.840;2023-07-08T14:50:50;3.63;;;2.25;;
77038;SDS011;65970;50.476;4.840;2023-07-08T14:55:52;7.22;;;2.92;;
77038;SDS011;65970;50.476;4.840;2023-07-08T15:00:55;5.38;;;2.80;;
77038;SDS011;65970;50.476;4.840;2023-07-08T15:05:57;5.38;;;3.25;;
77038;SDS011;65970;50.476;4.840;2023-07-08T15:10:58;4.32;;;2.40;;
77038;SDS011;65970;50.476;4.840;2023-07-08T15:15:59;6.53;;;2.88;;
77038;SDS011;65970;50.476;4.840;2023-07-08T15:20:59;7.30;;;2.95;;
77038;SDS011;65970;50.476;4.840;2023-07-08T15:26:00;5.63;;;3.20;;
77038;SDS011;65970;50.476;4.840;2023-07-08T15:31:01;3.65;;;3.10;;
77038;SDS011;65970;50.476;4.840;2023-07-08T15:36:02;7.43;;;2.40;;
77038;SDS011;65970;50.476;4.840;2023-07-08T15:41:03;5.97;;;2.63;;
77038;SDS011;65970;50.476;4.840;2023-07-08T15:46:03;6.47;;;2.92;;
77038;SDS011;65970;50.476;4.840;2023-07-08T15:51:04;3.63;;;2.67;;
77038;SDS011;65970;50.476;4.840;2023-07-08T15:56:04;4.45;;;2.58;;
77038;SDS011;65970;50.476;4.840;2023-07-08T16:01:07;8.70;;;2.40;;
77038;SDS011;65970;50.476;4.840;2023-07-08T16:06:14;4.35;;;2.88;;
77038;SDS011;65970;50.476;4.840;2023-07-08T16:11:36;7.40;;;2.97;;
77038;SDS011;65970;50.476;4.840;2023-07-08T16:16:36;4.88;;;2.92;;
77038;SDS011;65970;50.476;4.840;2023-07-08T16:21:36;6.80;;;2.83;;
77038;SDS011;65970;50.476;4.840;2023-07-08T16:26:38;6.70;;;2.95;;
77038;SDS011;65970;50.476;4.840;2023-07-08T16:31:39;5.20;;;2.85;;
77038;SDS011;65970;50.476;4.840;2023-07-08T16:36:40;5.50;;;2.45;;
77038;SDS011;65970;50.476;4.840;2023-07-08T16:41:40;4.15;;;2.67;;
77038;SDS011;65970;50.476;4.840;2023-07-08T16:46:41;3.95;;;2.58;;
77038;SDS011;65970;50.476;4.840;2023-07-08T16:51:42;7.40;;;3.05;;
77038;SDS011;65970;50.476;4.840;2023-07-08T16:56:43;6.05;;;2.70;;
77038;SDS011;65970;50.476;4.840;2023-07-08T17:01:45;3.75;;;2.40;;
77038;SDS011;65970;50.476;4.840;2023-07-08T17:06:46;4.22;;;2.47;;
77038;SDS011;65970;50.476;4.840;2023-07-08T17:11:46;5.28;;;2.70;;
77038;SDS011;65970;50.476;4.840;2023-07-08T17:16:47;2.67;;;2.28;;
77038;SDS011;65970;50.476;4.840;2023-07-08T17:21:47;4.85;;;2.65;;
77038;SDS011;65970;50.476;4.840;2023-07-08T17:26:48;4.60;;;2.70;;
77038;SDS011;65970;50.476;4.840;2023-07-08T17:31:48;4.63;;;2.63;;
77038;SDS011;65970;50.476;4.840;2023-07-08T17:36:51;4.55;;;2.47;;
77038;SDS011;65970;50.476;4.840;2023-07-08T17:41:51;4.53;;;2.45;;
77038;SDS011;65970;50.476;4.840;2023-07-08T17:46:52;4.38;;;2.00;;
77038;SDS011;65970;50.476;4.840;2023-07-08T17:51:52;3.88;;;2.33;;
77038;SDS011;65970;50.476;4.840;2023-07-08T17:56:53;3.58;;;2.35;;
77038;SDS011;65970;50.476;4.840;2023-07-08T18:01:53;4.20;;;2.50;;
77038;SDS011;65970;50.476;4.840;2023-07-08T18:06:54;4.38;;;2.33;;
77038;SDS011;65970;50.476;4.840;2023-07-08T18:11:54;6.07;;;2.75;;
77038;SDS011;65970;50.476;4.840;2023-07-08T18:16:55;2.92;;;2.15;;
77038;SDS011;65970;50.476;4.840;2023-07-08T18:21:56;2.72;;;2.40;;
77038;SDS011;65970;50.476;4.840;2023-07-08T18:26:56;4.65;;;2.90;;
77038;SDS011;65970;50.476;4.840;2023-07-08T18:31:57;6.32;;;3.03;;
77038;SDS011;65970;50.476;4.840;2023-07-08T18:36:57;4.65;;;2.55;;
77038;SDS011;65970;50.476;4.840;2023-07-08T18:41:58;2.85;;;2.30;;
77038;SDS011;65970;50.476;4.840;2023-07-08T18:46:58;4.95;;;2.75;;
77038;SDS011;65970;50.476;4.840;2023-07-08T18:51:59;3.05;;;2.22;;
77038;SDS011;65970;50.476;4.840;2023-07-08T18:56:59;3.25;;;2.30;;
77038;SDS011;65970;50.476;4.840;2023-07-08T19:02:00;4.80;;;2.75;;
77038;SDS011;65970;50.476;4.840;2023-07-08T19:07:00;2.80;;;2.30;;
77038;SDS011;65970;50.476;4.840;2023-07-08T19:12:01;4.32;;;2.33;;
77038;SDS011;65970;50.476;4.840;2023-07-08T19:17:02;4.90;;;2.38;;
77038;SDS011;65970;50.476;4.840;2023-07-08T19:22:02;4.70;;;2.70;;
77038;SDS011;65970;50.476;4.840;2023-07-08T19:27:03;3.13;;;2.17;;
77038;SDS011;65970;50.476;4.840;2023-07-08T19:32:05;2.50;;;2.30;;
77038;SDS011;65970;50.476;4.840;2023-07-08T19:37:15;2.88;;;2.40;;
77038;SDS011;65970;50.476;4.840;2023-07-08T19:42:22;5.20;;;2.80;;
77038;SDS011;65970;50.476;4.840;2023-07-08T19:47:24;4.25;;;2.58;;
77038;SDS011;65970;50.476;4.840;2023-07-08T19:52:25;4.72;;;3.33;;
77038;SDS011;65970;50.476;4.840;2023-07-08T19:57:25;5.22;;;3.13;;
77038;SDS011;65970;50.476;4.840;2023-07-08T20:02:26;6.43;;;3.00;;
77038;SDS011;65970;50.476;4.840;2023-07-08T20:07:26;5.90;;;2.85;;
77038;SDS011;65970;50.476;4.840;2023-07-08T20:12:27;7.38;;;3.35;;
77038;SDS011;65970;50.476;4.840;2023-07-08T20:17:27;5.68;;;4.05;;
77038;SDS011;65970;50.476;4.840;2023-07-08T20:22:28;5.47;;;3.60;;
77038;SDS011;65970;50.476;4.840;2023-07-08T20:27:28;6.25;;;4.03;;
77038;SDS011;65970;50.476;4.840;2023-07-08T20:32:29;7.07;;;2.90;;
77038;SDS011;65970;50.476;4.840;2023-07-08T20:37:29;3.60;;;2.63;;
77038;SDS011;65970;50.476;4.840;2023-07-08T20:42:30;4.50;;;3.15;;
77038;SDS011;65970;50.476;4.840;2023-07-08T20:47:30;4.35;;;2.80;;
77038;SDS011;65970;50.476;4.840;2023-07-08T20:52:31;5.55;;;3.40;;
77038;SDS011;65970;50.476;4.840;2023-07-08T20:57:31;5.55;;;2.95;;
77038;SDS011;65970;50.476;4.840;2023-07-08T21:02:32;4.32;;;3.13;;
77038;SDS011;65970;50.476;4.840;2023-07-08T21:07:32;5.07;;;3.60;;
77038;SDS011;65970;50.476;4.840;2023-07-08T21:12:33;5.68;;;3.35;;
77038;SDS011;65970;50.476;4.840;2023-07-08T21:17:33;6.38;;;3.22;;
77038;SDS011;65970;50.476;4.840;2023-07-08T21:22:36;5.78;;;4.10;;
77038;SDS011;65970;50.476;4.840;2023-07-08T21:32:37;5.72;;;3.85;;
77038;SDS011;65970;50.476;4.840;2023-07-08T21:37:38;4.88;;;3.58;;
77038;SDS011;65970;50.476;4.840;2023-07-08T21:42:46;5.78;;;3.50;;
77038;SDS011;65970;50.476;4.840;2023-07-08T21:47:47;4.68;;;3.10;;
77038;SDS011;65970;50.476;4.840;2023-07-08T21:52:47;7.43;;;3.60;;
77038;SDS011;65970;50.476;4.840;2023-07-08T21:57:48;5.15;;;3.22;;
77038;SDS011;65970;50.476;4.840;2023-07-08T22:02:49;5.43;;;2.97;;
77038;SDS011;65970;50.476;4.840;2023-07-08T22:07:50;4.68;;;3.63;;
77038;SDS011;65970;50.476;4.840;2023-07-08T22:12:52;4.55;;;3.45;;
77038;SDS011;65970;50.476;4.840;2023-07-08T22:17:54;5.47;;;2.83;;
77038;SDS011;65970;50.476;4.840;2023-07-08T22:22:55;4.60;;;3.17;;
77038;SDS011;65970;50.476;4.840;2023-07-08T22:27:56;5.50;;;2.75;;
77038;SDS011;65970;50.476;4.840;2023-07-08T22:32:57;4.15;;;2.88;;
77038;SDS011;65970;50.476;4.840;2023-07-08T22:37:57;4.55;;;3.33;;
77038;SDS011;65970;50.476;4.840;2023-07-08T22:42:58;6.13;;;3.35;;
77038;SDS011;65970;50.476;4.840;2023-07-08T22:47:59;4.57;;;2.58;;
77038;SDS011;65970;50.476;4.840;2023-07-08T22:52:59;4.70;;;3.45;;
77038;SDS011;65970;50.476;4.840;2023-07-08T22:58:01;4.97;;;3.45;;
77038;SDS011;65970;50.476;4.840;2023-07-08T23:03:02;7.47;;;3.47;;
77038;SDS011;65970;50.476;4.840;2023-07-08T23:08:02;3.75;;;2.80;;
77038;SDS011;65970;50.476;4.840;2023-07-08T23:13:03;5.65;;;3.45;;
77038;SDS011;65970;50.476;4.840;2023-07-08T23:18:04;4.82;;;2.88;;
77038;SDS011;65970;50.476;4.840;2023-07-08T23:23:04;6.57;;;3.40;;
77038;SDS011;65970;50.476;4.840;2023-07-08T23:28:05;5.43;;;3.00;;
77038;SDS011;65970;50.476;4.840;2023-07-08T23:33:15;4.30;;;3.25;;
77038;SDS011;65970;50.476;4.840;2023-07-08T23:38:16;6.40;;;2.88;;
77038;SDS011;65970;50.476;4.840;2023-07-08T23:43:17;5.35;;;3.08;;
77038;SDS011;65970;50.476;4.840;2023-07-08T23:48:18;4.18;;;3.28;;
77038;SDS011;65970;50.476;4.840;2023-07-08T23:53:19;6.07;;;3.38;;
77038;SDS011;65970;50.476;4.840;2023-07-08T23:58:21;5.05;;;2.85;;
